createdAt,value
2022-10-22T00:00:11.634Z,15.40
2022-10-22T00:02:58.893Z,19.92
2022-10-22T00:05:25.830Z,13.57
2022-10-22T00:07:53.008Z,14.75
2022-10-22T00:10:19.938Z,13.48
2022-10-22T00:12:47.153Z,13.77
2022-10-22T00:15:13.984Z,13.40
2022-10-22T00:17:41.379Z,16.75
2022-10-22T00:20:09.042Z,12.88
2022-10-22T00:22:36.093Z,15.15
2022-10-22T00:25:03.149Z,14.80
2022-10-22T00:27:30.282Z,14.85
2022-10-22T00:29:57.589Z,15.13
2022-10-22T00:32:24.638Z,17.88
2022-10-22T00:34:51.560Z,15.80
2022-10-22T00:37:18.657Z,19.52
2022-10-22T00:39:45.522Z,22.00
2022-10-22T00:42:20.058Z,18.75
2022-10-22T00:45:05.411Z,20.45
2022-10-22T00:47:36.962Z,15.43
2022-10-22T00:50:06.345Z,15.00
2022-10-22T00:52:33.783Z,13.07
2022-10-22T00:55:01.246Z,13.75
2022-10-22T00:57:28.865Z,15.63
2022-10-22T00:59:56.331Z,14.15
2022-10-22T01:02:24.182Z,15.25
2022-10-22T01:04:51.098Z,16.02
2022-10-22T01:07:20.793Z,14.15
2022-10-22T01:10:13.642Z,13.85
2022-10-22T01:12:52.375Z,14.20
2022-10-22T01:15:39.493Z,15.20
2022-10-22T01:18:16.628Z,18.27
2022-10-22T01:21:12.342Z,14.82
2022-10-22T01:23:42.199Z,15.35
2022-10-22T01:26:14.870Z,14.57
2022-10-22T01:28:58.689Z,15.05
2022-10-22T01:31:30.744Z,18.92
2022-10-22T01:33:59.892Z,17.75
2022-10-22T01:36:29.632Z,24.25
2022-10-22T01:38:57.199Z,21.52
2022-10-22T01:41:24.112Z,39.90
2022-10-22T01:43:51.203Z,29.80
2022-10-22T01:46:20.821Z,36.55
2022-10-22T01:48:56.530Z,38.90
2022-10-22T01:51:50.175Z,39.10
2022-10-22T01:54:26.441Z,18.15
2022-10-22T01:56:56.238Z,22.95
2022-10-22T01:59:29.737Z,16.65
2022-10-22T02:01:59.468Z,17.15
2022-10-22T02:04:47.368Z,14.93
2022-10-22T02:07:16.028Z,13.95
2022-10-22T02:09:43.679Z,14.98
2022-10-22T02:12:10.968Z,23.73
2022-10-22T02:14:40.171Z,36.90
2022-10-22T02:17:09.153Z,22.45
2022-10-22T02:19:57.347Z,59.85
2022-10-22T02:22:25.266Z,42.58
2022-10-22T02:24:52.307Z,47.97
2022-10-22T02:27:30.546Z,27.65
2022-10-22T02:30:00.596Z,64.13
2022-10-22T02:32:33.230Z,82.20
2022-10-22T02:35:01.446Z,44.42
2022-10-22T02:37:28.653Z,40.30
2022-10-22T02:39:56.475Z,80.13
2022-10-22T02:42:25.375Z,35.75
2022-10-22T02:44:52.757Z,37.03
2022-10-22T02:47:20.165Z,33.67
2022-10-22T02:49:47.335Z,27.08
2022-10-22T02:52:14.577Z,15.85
2022-10-22T02:54:41.766Z,16.42
2022-10-22T02:57:08.808Z,17.15
2022-10-22T02:59:36.022Z,18.70
2022-10-22T03:02:02.824Z,15.10
2022-10-22T03:04:30.142Z,18.77
2022-10-22T03:06:57.342Z,17.40
2022-10-22T03:09:24.972Z,22.95
2022-10-22T03:11:52.247Z,16.20
2022-10-22T03:14:19.458Z,21.35
2022-10-22T03:16:46.524Z,35.90
2022-10-22T03:19:13.632Z,36.50
2022-10-22T03:21:51.499Z,43.17
2022-10-22T03:24:22.488Z,107.35
2022-10-22T03:26:51.606Z,50.63
2022-10-22T03:29:19.683Z,47.92
2022-10-22T03:31:46.585Z,34.08
2022-10-22T03:34:13.759Z,56.83
2022-10-22T03:36:41.009Z,40.75
2022-10-22T03:39:08.224Z,49.55
2022-10-22T03:41:35.702Z,33.67
2022-10-22T03:44:03.694Z,46.28
2022-10-22T03:46:30.533Z,23.73
2022-10-22T03:48:57.635Z,22.70
2022-10-22T03:51:27.513Z,24.73
2022-10-22T03:53:54.935Z,27.83
2022-10-22T03:56:21.914Z,30.60
2022-10-22T03:58:49.224Z,17.27
2022-10-22T04:01:16.099Z,47.10
2022-10-22T04:03:43.265Z,35.17
2022-10-22T04:06:13.069Z,41.70
2022-10-22T04:08:42.034Z,63.45
2022-10-22T04:11:09.939Z,27.08
2022-10-22T04:13:37.120Z,19.58
2022-10-22T04:16:12.427Z,17.50
2022-10-22T04:18:40.590Z,17.35
2022-10-22T04:21:09.198Z,14.10
2022-10-22T04:23:36.659Z,18.70
2022-10-22T04:26:06.431Z,14.80
2022-10-22T04:28:34.734Z,15.63
2022-10-22T04:31:07.954Z,14.60
2022-10-22T04:33:35.010Z,18.98
2022-10-22T04:36:09.718Z,23.45
2022-10-22T04:38:36.813Z,25.30
2022-10-22T04:41:21.768Z,30.60
2022-10-22T04:43:49.233Z,17.75
2022-10-22T04:46:18.437Z,45.25
2022-10-22T04:48:46.294Z,23.13
2022-10-22T04:51:16.775Z,12.95
2022-10-22T04:53:44.641Z,15.98
2022-10-22T04:56:23.060Z,68.78
2022-10-22T04:58:52.231Z,26.92
2022-10-22T05:01:42.725Z,25.75
2022-10-22T05:04:13.197Z,12.57
2022-10-22T05:06:40.116Z,14.18
2022-10-22T05:09:13.636Z,12.25
2022-10-22T05:11:43.273Z,12.20
2022-10-22T05:14:10.566Z,9.50
2022-10-22T05:16:38.328Z,10.20
2022-10-22T05:19:06.169Z,12.40
2022-10-22T05:21:33.393Z,11.50
2022-10-22T05:24:01.018Z,11.35
2022-10-22T05:26:29.025Z,14.15
2022-10-22T05:28:56.254Z,55.70
2022-10-22T05:31:23.403Z,37.30
2022-10-22T05:33:50.748Z,20.58
2022-10-22T05:36:23.614Z,15.50
2022-10-22T05:38:50.814Z,11.30
2022-10-22T05:41:20.163Z,12.60
2022-10-22T05:43:47.886Z,11.30
2022-10-22T05:46:22.534Z,15.00
2022-10-22T05:48:58.264Z,28.08
2022-10-22T05:51:26.286Z,18.98
2022-10-22T05:53:55.595Z,27.23
2022-10-22T05:56:22.953Z,40.80
2022-10-22T05:58:50.736Z,90.10
2022-10-22T06:01:20.619Z,96.60
2022-10-22T06:03:48.611Z,49.47
2022-10-22T06:06:29.521Z,96.72
2022-10-22T06:09:00.908Z,94.28
2022-10-22T06:11:31.146Z,56.53
2022-10-22T06:14:01.436Z,52.83
2022-10-22T06:16:29.775Z,30.15
2022-10-22T06:18:58.937Z,22.50
2022-10-22T06:21:25.767Z,12.52
2022-10-22T06:23:52.909Z,12.95
2022-10-22T06:26:19.767Z,10.60
2022-10-22T06:28:46.802Z,11.00
2022-10-22T06:31:14.521Z,13.30
2022-10-22T06:33:44.580Z,12.10
2022-10-22T06:36:14.028Z,10.73
2022-10-22T06:38:41.356Z,13.50
2022-10-22T06:41:11.106Z,12.98
2022-10-22T06:43:38.364Z,13.15
2022-10-22T06:46:08.782Z,16.10
2022-10-22T06:48:37.989Z,15.32
2022-10-22T06:51:07.457Z,20.15
2022-10-22T06:53:35.170Z,66.55
2022-10-22T06:56:21.971Z,28.50
2022-10-22T06:58:50.744Z,12.70
2022-10-22T07:01:19.205Z,10.45
2022-10-22T07:03:46.541Z,10.60
2022-10-22T07:06:15.198Z,8.82
2022-10-22T07:08:42.714Z,9.50
2022-10-22T07:11:18.868Z,10.45
2022-10-22T07:13:46.641Z,13.65
2022-10-22T07:16:13.767Z,15.02
2022-10-22T07:18:43.154Z,9.70
2022-10-22T07:21:12.042Z,9.35
2022-10-22T07:23:39.899Z,11.02
2022-10-22T07:26:07.588Z,8.98
2022-10-22T07:28:36.667Z,9.80
2022-10-22T07:31:03.828Z,9.35
2022-10-22T07:33:30.969Z,9.52
2022-10-22T07:36:02.533Z,11.68
2022-10-22T07:38:29.772Z,9.52
2022-10-22T07:40:56.618Z,10.43
2022-10-22T07:43:24.513Z,9.77
2022-10-22T07:45:51.634Z,10.10
2022-10-22T07:48:18.761Z,9.50
2022-10-22T07:50:45.646Z,9.90
2022-10-22T07:53:12.777Z,9.80
2022-10-22T07:55:39.642Z,10.27
2022-10-22T07:58:06.723Z,11.02
2022-10-22T08:00:33.744Z,13.13
2022-10-22T08:03:01.205Z,11.68
2022-10-22T08:05:28.037Z,10.65
2022-10-22T08:07:55.140Z,11.23
2022-10-22T08:10:21.980Z,11.07
2022-10-22T08:12:49.386Z,10.45
2022-10-22T08:15:16.366Z,10.73
2022-10-22T08:17:44.254Z,10.15
2022-10-22T08:20:11.489Z,9.73
2022-10-22T08:22:38.559Z,11.20
2022-10-22T08:25:06.020Z,11.52
2022-10-22T08:27:33.395Z,11.90
2022-10-22T08:30:00.223Z,10.57
2022-10-22T08:34:59.351Z,10.48
2022-10-22T08:37:26.506Z,9.93
2022-10-22T08:39:53.458Z,10.85
2022-10-22T08:42:35.833Z,10.80
2022-10-22T08:45:13.696Z,10.88
2022-10-22T08:48:08.574Z,10.95
2022-10-22T08:50:45.046Z,10.88
2022-10-22T08:53:15.799Z,11.20
2022-10-22T08:55:42.893Z,10.90
2022-10-22T08:58:28.386Z,10.45
2022-10-22T09:00:59.517Z,10.57
2022-10-22T09:03:45.547Z,12.30
2022-10-22T09:06:33.038Z,11.50
2022-10-22T09:09:00.873Z,11.63
2022-10-22T09:11:33.763Z,12.13
2022-10-22T09:14:02.020Z,11.15
2022-10-22T09:16:50.579Z,11.40
2022-10-22T09:19:49.803Z,11.75
2022-10-22T09:22:31.626Z,12.57
2022-10-22T09:25:20.371Z,12.52
2022-10-22T09:27:48.305Z,13.48
2022-10-22T09:30:21.601Z,12.25
2022-10-22T09:32:55.371Z,12.75
2022-10-22T09:35:24.596Z,12.18
2022-10-22T09:37:55.691Z,12.75
2022-10-22T09:40:23.655Z,11.60
2022-10-22T09:42:50.537Z,12.20
2022-10-22T09:45:24.898Z,12.73
2022-10-22T09:48:12.848Z,11.48
2022-10-22T09:50:50.540Z,13.18
2022-10-22T09:53:22.164Z,12.65
2022-10-22T09:55:52.325Z,12.00
2022-10-22T09:58:20.039Z,12.73
2022-10-22T10:00:52.040Z,12.43
2022-10-22T10:03:22.282Z,13.38
2022-10-22T10:05:52.914Z,14.13
2022-10-22T10:08:19.890Z,12.95
2022-10-22T10:10:52.984Z,12.43
2022-10-22T10:13:28.745Z,13.15
2022-10-22T10:16:09.397Z,13.00
2022-10-22T10:18:54.508Z,12.85
2022-10-22T10:21:47.647Z,12.98
2022-10-22T10:24:35.677Z,13.10
2022-10-22T10:27:09.329Z,13.30
2022-10-22T10:29:49.102Z,12.55
2022-10-22T10:32:25.874Z,13.23
2022-10-22T10:35:01.580Z,13.68
2022-10-22T10:37:34.978Z,13.77
2022-10-22T10:40:19.789Z,13.43
2022-10-22T10:42:52.420Z,12.30
2022-10-22T10:45:30.730Z,13.15
2022-10-22T10:48:36.165Z,12.23
2022-10-22T10:51:05.503Z,12.77
2022-10-22T10:53:42.963Z,13.00
2022-10-22T10:56:19.046Z,12.75
2022-10-22T10:59:08.309Z,11.88
2022-10-22T11:01:37.826Z,13.18
2022-10-22T11:04:29.878Z,12.85
2022-10-22T11:07:10.864Z,13.13
2022-10-22T11:09:43.410Z,12.75
2022-10-22T11:12:16.224Z,13.05
2022-10-22T11:15:08.012Z,12.88
2022-10-22T11:17:46.473Z,14.02
2022-10-22T11:20:24.400Z,12.93
2022-10-22T11:23:18.868Z,13.98
2022-10-22T11:25:49.395Z,13.13
2022-10-22T11:28:37.584Z,13.25
2022-10-22T11:31:12.733Z,13.63
2022-10-22T11:33:46.452Z,14.23
2022-10-22T11:36:14.047Z,14.65
2022-10-22T11:38:40.996Z,14.80
2022-10-22T11:41:18.195Z,13.95
2022-10-22T11:44:23.659Z,14.48
2022-10-22T11:47:19.055Z,15.15
2022-10-22T11:50:00.252Z,14.10
2022-10-22T11:52:39.525Z,14.90
2022-10-22T11:55:55.712Z,14.30
2022-10-22T11:58:28.761Z,15.10
2022-10-22T12:00:57.932Z,14.88
2022-10-22T12:03:30.923Z,14.88
2022-10-22T12:06:12.932Z,14.63
2022-10-22T12:08:50.507Z,14.82
2022-10-22T12:11:35.562Z,14.95
2022-10-22T12:14:29.042Z,15.40
2022-10-22T12:17:08.959Z,14.60
2022-10-22T12:19:39.457Z,15.05
2022-10-22T12:22:12.137Z,14.77
2022-10-22T12:24:42.253Z,15.52
2022-10-22T12:27:39.825Z,15.35
2022-10-22T12:30:22.363Z,15.65
2022-10-22T12:32:52.084Z,15.55
2022-10-22T12:35:21.202Z,15.75
2022-10-22T12:37:52.175Z,15.68
2022-10-22T12:40:24.296Z,17.02
2022-10-22T12:42:54.034Z,16.33
2022-10-22T12:45:21.659Z,16.10
2022-10-22T12:47:50.775Z,15.52
2022-10-22T12:50:23.939Z,15.88
2022-10-22T12:52:50.914Z,14.88
2022-10-22T12:55:20.129Z,14.55
2022-10-22T12:57:48.706Z,15.60
2022-10-22T13:00:25.867Z,14.52
2022-10-22T13:02:53.767Z,14.88
2022-10-22T13:05:27.238Z,15.32
2022-10-22T13:08:03.164Z,16.65
2022-10-22T13:10:36.091Z,18.23
2022-10-22T13:13:04.236Z,18.98
2022-10-22T13:15:31.551Z,18.48
2022-10-22T13:18:22.678Z,20.77
2022-10-22T13:20:58.854Z,21.58
2022-10-22T13:23:28.127Z,20.52
2022-10-22T13:26:05.025Z,20.67
2022-10-22T13:28:32.428Z,21.83
2022-10-22T13:31:01.826Z,24.83
2022-10-22T13:33:34.971Z,23.75
2022-10-22T13:36:02.520Z,22.70
2022-10-22T13:38:29.948Z,24.52
2022-10-22T13:40:58.668Z,23.33
2022-10-22T13:43:25.707Z,24.98
2022-10-22T13:45:55.612Z,23.70
2022-10-22T13:48:24.465Z,28.13
2022-10-22T13:50:52.631Z,25.55
2022-10-22T13:53:22.921Z,24.98
2022-10-22T13:55:50.406Z,24.20
2022-10-22T13:58:19.543Z,36.22
2022-10-22T14:00:50.415Z,42.78
2022-10-22T14:03:20.225Z,44.78
2022-10-22T14:05:47.893Z,34.80
2022-10-22T14:08:18.016Z,30.17
2022-10-22T14:10:45.265Z,28.17
2022-10-22T14:13:13.429Z,27.45
2022-10-22T14:15:41.117Z,27.15
2022-10-22T14:18:11.430Z,26.08
2022-10-22T14:20:40.382Z,26.95
2022-10-22T14:25:52.730Z,27.45
2022-10-22T14:28:19.830Z,28.15
2022-10-22T14:30:47.472Z,29.15
2022-10-22T14:33:28.779Z,29.17
2022-10-22T14:35:59.987Z,27.35
2022-10-22T14:38:26.935Z,29.40
2022-10-22T14:40:54.334Z,43.10
2022-10-22T14:43:24.069Z,36.63
2022-10-22T14:45:51.792Z,48.83
2022-10-22T14:50:51.994Z,32.22
2022-10-22T14:53:18.925Z,34.28
2022-10-22T14:55:49.129Z,31.85
2022-10-22T14:58:16.558Z,32.65
2022-10-22T15:00:44.279Z,32.95
2022-10-22T15:03:11.672Z,32.97
2022-10-22T15:05:44.470Z,31.65
2022-10-22T15:08:12.715Z,34.50
2022-10-22T15:10:40.340Z,44.97
2022-10-22T15:13:07.398Z,32.20
2022-10-22T15:15:39.487Z,33.13
2022-10-22T15:18:07.412Z,34.05
2022-10-22T15:20:34.467Z,36.88
2022-10-22T15:23:01.349Z,35.03
2022-10-22T15:25:28.863Z,34.70
2022-10-22T15:28:00.741Z,60.60
2022-10-22T15:30:31.995Z,44.05
2022-10-22T15:32:58.823Z,39.72
2022-10-22T15:35:28.387Z,43.05
2022-10-22T15:37:55.540Z,42.97
2022-10-22T15:40:22.667Z,57.17
2022-10-22T15:42:49.547Z,47.00
2022-10-22T15:45:16.817Z,65.55
2022-10-22T15:47:48.071Z,44.95
2022-10-22T15:50:15.886Z,51.70
2022-10-22T15:52:42.967Z,65.03
2022-10-22T15:55:10.708Z,48.25
2022-10-22T15:57:38.757Z,45.90
2022-10-22T16:00:06.740Z,43.35
2022-10-22T16:02:40.101Z,42.13
2022-10-22T16:05:08.071Z,38.03
2022-10-22T16:07:34.955Z,44.85
2022-10-22T16:10:02.106Z,44.88
2022-10-22T16:12:29.110Z,44.10
2022-10-22T16:14:56.185Z,59.95
2022-10-22T16:17:23.597Z,109.70
2022-10-22T16:19:51.046Z,75.72
2022-10-22T16:22:17.854Z,60.22
2022-10-22T16:24:45.101Z,45.97
2022-10-22T16:27:11.946Z,42.38
2022-10-22T16:29:39.595Z,44.88
2022-10-22T16:32:06.701Z,44.80
2022-10-22T16:34:33.809Z,39.78
2022-10-22T16:37:00.833Z,40.35
2022-10-22T16:39:27.959Z,43.05
2022-10-22T16:41:54.940Z,40.20
2022-10-22T16:44:22.032Z,41.75
2022-10-22T16:46:48.884Z,40.35
2022-10-22T16:49:16.019Z,39.53
2022-10-22T16:51:42.948Z,40.28
2022-10-22T16:54:12.540Z,39.95
2022-10-22T16:56:40.698Z,44.00
2022-10-22T16:59:08.205Z,41.40
2022-10-22T17:01:40.345Z,38.95
2022-10-22T17:04:08.234Z,38.63
2022-10-22T17:06:35.142Z,41.47
2022-10-22T17:09:02.326Z,41.50
2022-10-22T17:11:36.308Z,41.53
2022-10-22T17:14:05.317Z,41.80
2022-10-22T17:16:32.129Z,43.30
2022-10-22T17:18:59.494Z,41.40
2022-10-22T17:21:26.395Z,43.08
2022-10-22T17:23:56.979Z,49.50
2022-10-22T17:26:26.469Z,47.85
2022-10-22T17:28:53.900Z,45.75
2022-10-22T17:31:22.180Z,43.00
2022-10-22T17:33:51.128Z,48.40
2022-10-22T17:36:19.471Z,47.63
2022-10-22T17:38:50.024Z,46.65
2022-10-22T17:41:19.417Z,44.05
2022-10-22T17:46:23.891Z,47.03
2022-10-22T17:48:53.223Z,50.95
2022-10-22T17:51:21.435Z,101.25
2022-10-22T17:53:51.911Z,49.72
2022-10-22T17:56:21.432Z,49.40
2022-10-22T17:58:49.041Z,52.63
2022-10-22T18:01:31.290Z,46.97
2022-10-22T18:04:01.023Z,55.63
2022-10-22T18:06:28.783Z,51.90
2022-10-22T18:08:56.559Z,52.35
2022-10-22T18:11:25.267Z,47.83
2022-10-22T18:13:56.214Z,51.42
2022-10-22T18:16:24.147Z,46.25
2022-10-22T18:18:54.081Z,46.30
2022-10-22T18:21:22.669Z,45.25
2022-10-22T18:23:50.241Z,46.58
2022-10-22T18:26:20.227Z,46.15
2022-10-22T18:28:50.126Z,46.83
2022-10-22T18:31:19.534Z,48.05
2022-10-22T18:33:47.582Z,48.45
2022-10-22T18:36:24.269Z,47.90
2022-10-22T18:38:53.100Z,47.40
2022-10-22T18:41:20.831Z,51.22
2022-10-22T18:43:55.805Z,48.92
2022-10-22T18:46:24.298Z,51.65
2022-10-22T18:48:56.248Z,51.03
2022-10-22T18:51:24.607Z,54.65
2022-10-22T18:54:04.737Z,49.03
2022-10-22T18:56:40.654Z,52.22
2022-10-22T18:59:14.395Z,59.03
2022-10-22T19:01:41.425Z,55.88
2022-10-22T19:04:08.595Z,61.17
2022-10-22T19:06:37.070Z,59.08
2022-10-22T19:09:05.337Z,73.65
2022-10-22T19:11:32.771Z,65.45
2022-10-22T19:14:04.162Z,59.13
2022-10-22T19:16:31.123Z,62.40
2022-10-22T19:19:03.255Z,63.35
2022-10-22T19:21:30.419Z,64.60
2022-10-22T19:23:58.861Z,61.72
2022-10-22T19:26:27.634Z,64.45
2022-10-22T19:28:55.606Z,65.80
2022-10-22T19:31:24.122Z,60.08
2022-10-22T19:33:52.049Z,67.05
2022-10-22T19:36:19.736Z,62.00
2022-10-22T19:38:49.126Z,69.18
2022-10-22T19:41:18.373Z,57.97
2022-10-22T19:43:48.387Z,60.85
2022-10-22T19:46:15.357Z,60.08
2022-10-22T19:48:42.496Z,63.45
2022-10-22T19:51:11.438Z,63.05
2022-10-22T19:53:38.882Z,65.00
2022-10-22T19:56:07.537Z,65.95
2022-10-22T19:58:35.608Z,60.88
2022-10-22T20:01:09.856Z,60.28
2022-10-22T20:03:37.685Z,62.00
2022-10-22T20:06:07.192Z,62.15
2022-10-22T20:08:37.872Z,60.40
2022-10-22T20:11:10.696Z,61.72
2022-10-22T20:16:10.183Z,59.65
2022-10-22T20:18:38.577Z,58.22
2022-10-22T20:21:06.567Z,59.00
2022-10-22T20:23:34.387Z,59.75
2022-10-22T20:26:01.353Z,57.35
2022-10-22T20:28:28.702Z,57.55
2022-10-22T20:30:55.587Z,58.15
2022-10-22T20:33:22.753Z,57.30
2022-10-22T20:36:03.472Z,57.30
2022-10-22T20:38:30.665Z,57.53
2022-10-22T20:41:05.868Z,60.47
2022-10-22T20:43:33.372Z,60.67
2022-10-22T20:46:00.366Z,60.92
2022-10-22T20:48:31.338Z,63.85
2022-10-22T20:50:59.484Z,68.53
2022-10-22T20:53:27.883Z,63.70
2022-10-22T20:55:57.261Z,62.72
2022-10-22T20:58:26.873Z,65.10
2022-10-22T21:00:54.860Z,68.07
2022-10-22T21:03:22.071Z,65.38
2022-10-22T21:05:49.299Z,64.95
2022-10-22T21:08:17.771Z,65.63
2022-10-22T21:10:46.499Z,67.80
2022-10-22T21:13:14.223Z,110.63
2022-10-22T21:15:41.448Z,115.15
2022-10-22T21:18:08.636Z,82.03
2022-10-22T21:20:35.524Z,82.65
2022-10-22T21:23:02.874Z,68.68
2022-10-22T21:25:29.747Z,66.05
2022-10-22T21:27:56.871Z,68.25
2022-10-22T21:30:23.837Z,65.72
2022-10-22T21:32:51.810Z,72.47
2022-10-22T21:35:18.698Z,69.97
2022-10-22T21:37:45.719Z,66.50
2022-10-22T21:40:12.772Z,70.07
2022-10-22T21:42:39.917Z,68.85
2022-10-22T21:45:12.128Z,72.28
2022-10-22T21:47:41.501Z,71.20
2022-10-22T21:50:08.955Z,75.15
2022-10-22T21:52:36.321Z,81.13
2022-10-22T21:55:03.217Z,69.18
2022-10-22T21:57:30.258Z,67.60
2022-10-22T21:59:57.168Z,67.80
2022-10-22T22:02:24.215Z,67.50
2022-10-22T22:04:54.863Z,66.80
2022-10-22T22:07:22.262Z,72.22
2022-10-22T22:09:50.329Z,63.97
2022-10-22T22:12:18.412Z,65.90
2022-10-22T22:14:45.255Z,67.88
2022-10-22T22:17:12.458Z,61.58
2022-10-22T22:19:39.486Z,60.58
2022-10-22T22:22:06.550Z,63.03
2022-10-22T22:24:33.379Z,68.85
2022-10-22T22:27:00.464Z,70.15
2022-10-22T22:29:27.349Z,64.40
2022-10-22T22:31:54.599Z,61.35
2022-10-22T22:34:21.435Z,66.00
2022-10-22T22:36:51.591Z,62.47
2022-10-22T22:39:21.712Z,60.83
2022-10-22T22:41:48.977Z,56.80
2022-10-22T22:44:16.256Z,60.40
2022-10-22T22:46:43.952Z,57.88
2022-10-22T22:49:12.398Z,67.82
2022-10-22T22:51:39.505Z,60.38
2022-10-22T22:54:06.399Z,60.70
2022-10-22T22:56:34.679Z,63.75
2022-10-22T22:59:02.183Z,60.03
2022-10-22T23:01:34.907Z,57.20
2022-10-22T23:04:13.160Z,55.13
2022-10-22T23:06:40.318Z,51.50
2022-10-22T23:09:09.262Z,49.50
2022-10-22T23:11:36.678Z,57.60
2022-10-22T23:14:05.501Z,50.92
2022-10-22T23:16:35.140Z,52.53
2022-10-22T23:19:02.663Z,62.53
2022-10-22T23:21:35.505Z,58.58
2022-10-22T23:24:05.650Z,52.92
2022-10-22T23:26:35.466Z,50.40
2022-10-22T23:29:11.527Z,51.92
2022-10-22T23:31:38.954Z,51.22
2022-10-22T23:34:06.700Z,47.58
2022-10-22T23:36:37.618Z,46.83
2022-10-22T23:39:06.224Z,45.38
2022-10-22T23:41:33.471Z,43.78
2022-10-22T23:44:00.723Z,45.17
2022-10-22T23:46:28.288Z,44.53
2022-10-22T23:48:55.300Z,44.60
2022-10-22T23:51:23.047Z,43.20
2022-10-22T23:53:58.032Z,44.00
2022-10-22T23:56:25.946Z,41.42
2022-10-22T23:58:53.479Z,48.00
